createdAt,value
2023-02-18T00:02:15.495Z,66.50
2023-02-18T00:04:44.857Z,67.22
2023-02-18T00:07:14.267Z,66.77
2023-02-18T00:09:43.649Z,66.91
2023-02-18T00:12:13.194Z,66.84
2023-02-18T00:14:42.846Z,67.27
2023-02-18T00:17:14.809Z,67.55
2023-02-18T00:19:44.168Z,67.56
2023-02-18T00:22:13.617Z,67.64
2023-02-18T00:24:43.080Z,67.17
2023-02-18T00:27:12.454Z,67.20
2023-02-18T00:29:41.881Z,66.97
2023-02-18T00:32:11.549Z,67.30
2023-02-18T00:34:43.521Z,67.27
2023-02-18T00:37:12.875Z,67.44
2023-02-18T00:39:42.267Z,66.57
2023-02-18T00:42:11.673Z,67.26
2023-02-18T00:44:41.103Z,67.43
2023-02-18T00:47:10.522Z,67.45
2023-02-18T00:49:42.605Z,67.53
2023-02-18T00:52:12.093Z,67.87
2023-02-18T00:54:43.522Z,67.89
2023-02-18T00:57:13.370Z,68.09
2023-02-18T00:59:42.783Z,67.74
2023-02-18T01:02:12.148Z,68.00
2023-02-18T01:04:44.205Z,68.09
2023-02-18T01:07:14.348Z,68.25
2023-02-18T01:09:43.762Z,68.55
2023-02-18T01:12:13.113Z,68.34
2023-02-18T01:14:42.439Z,68.28
2023-02-18T01:17:12.435Z,68.19
2023-02-18T01:19:45.359Z,67.78
2023-02-18T01:22:14.757Z,67.58
2023-02-18T01:24:46.315Z,67.82
2023-02-18T01:27:15.939Z,67.80
2023-02-18T01:29:45.264Z,67.54
2023-02-18T01:32:14.844Z,67.31
2023-02-18T01:34:46.830Z,67.24
2023-02-18T01:37:17.076Z,67.10
2023-02-18T01:39:46.492Z,67.43
2023-02-18T01:42:21.759Z,66.99
2023-02-18T01:44:53.843Z,67.37
2023-02-18T01:47:23.739Z,66.96
2023-02-18T01:49:57.341Z,67.22
2023-02-18T01:52:32.449Z,66.89
2023-02-18T01:55:02.953Z,67.06
2023-02-18T01:57:35.918Z,67.19
2023-02-18T02:00:08.290Z,67.31
2023-02-18T02:02:48.286Z,66.63
2023-02-18T02:05:21.013Z,66.66
2023-02-18T02:07:51.773Z,66.80
2023-02-18T02:10:22.756Z,67.08
2023-02-18T02:13:02.406Z,67.09
2023-02-18T02:15:41.203Z,67.14
2023-02-18T02:18:39.461Z,67.08
2023-02-18T02:21:41.471Z,67.05
2023-02-18T02:24:31.762Z,67.09
2023-02-18T02:27:14.387Z,67.13
2023-02-18T02:30:31.308Z,66.90
2023-02-18T02:33:26.510Z,67.14
2023-02-18T02:36:06.879Z,67.13
2023-02-18T02:38:42.828Z,67.29
2023-02-18T02:41:23.339Z,67.46
2023-02-18T02:44:04.321Z,67.40
2023-02-18T02:46:39.880Z,67.58
2023-02-18T02:49:16.956Z,67.67
2023-02-18T02:51:54.691Z,67.86
2023-02-18T02:54:25.882Z,68.14
2023-02-18T02:57:09.468Z,68.14
2023-02-18T02:59:45.684Z,68.08
2023-02-18T03:02:28.062Z,68.24
2023-02-18T03:05:13.109Z,68.66
2023-02-18T03:08:06.417Z,68.57
2023-02-18T03:10:49.289Z,69.18
2023-02-18T03:13:36.052Z,69.48
2023-02-18T03:16:17.382Z,69.81
2023-02-18T03:18:51.335Z,70.29
2023-02-18T03:21:27.926Z,70.42
2023-02-18T03:24:04.768Z,70.95
2023-02-18T03:26:37.271Z,72.19
2023-02-18T03:29:11.437Z,72.69
2023-02-18T03:31:44.206Z,72.96
2023-02-18T03:34:18.915Z,72.80
2023-02-18T03:36:48.508Z,73.27
2023-02-18T03:39:23.425Z,73.93
2023-02-18T03:41:52.821Z,74.45
2023-02-18T03:44:22.306Z,74.61
2023-02-18T03:46:51.752Z,74.93
2023-02-18T03:49:22.017Z,75.56
2023-02-18T03:51:51.640Z,75.39
2023-02-18T03:54:24.007Z,75.83
2023-02-18T03:56:53.392Z,75.69
2023-02-18T03:59:22.844Z,75.73
2023-02-18T04:01:52.288Z,76.18
2023-02-18T04:04:21.793Z,76.67
2023-02-18T04:06:51.173Z,76.99
2023-02-18T04:09:20.574Z,77.28
2023-02-18T04:11:52.573Z,77.41
2023-02-18T04:14:22.080Z,77.64
2023-02-18T04:16:51.654Z,77.66
2023-02-18T04:19:21.098Z,77.28
2023-02-18T04:21:50.512Z,76.67
2023-02-18T04:24:19.892Z,76.65
2023-02-18T04:26:51.921Z,76.83
2023-02-18T04:29:21.315Z,77.36
2023-02-18T04:31:50.782Z,78.06
2023-02-18T04:34:20.277Z,79.12
2023-02-18T04:36:49.697Z,80.38
2023-02-18T04:39:19.087Z,81.21
2023-02-18T04:41:48.452Z,82.51
2023-02-18T04:44:20.450Z,83.37
2023-02-18T04:46:49.846Z,83.44
2023-02-18T04:49:19.248Z,84.17
2023-02-18T04:51:48.678Z,84.85
2023-02-18T04:54:18.046Z,84.94
2023-02-18T04:56:47.434Z,84.63
2023-02-18T04:59:16.828Z,85.35
2023-02-18T05:01:48.808Z,86.10
2023-02-18T05:04:18.358Z,85.79
2023-02-18T05:06:47.859Z,86.11
2023-02-18T05:09:17.597Z,85.90
2023-02-18T05:11:47.570Z,86.55
2023-02-18T05:14:17.462Z,86.54
2023-02-18T05:16:49.407Z,86.49
2023-02-18T05:19:19.606Z,86.48
2023-02-18T05:21:48.987Z,86.87
2023-02-18T05:24:18.385Z,86.92
2023-02-18T05:26:47.792Z,87.06
2023-02-18T05:29:17.163Z,87.04
2023-02-18T05:31:49.315Z,87.38
2023-02-18T05:34:18.772Z,87.94
2023-02-18T05:36:48.154Z,88.21
2023-02-18T05:39:17.549Z,88.48
2023-02-18T05:41:46.964Z,87.64
2023-02-18T05:44:31.368Z,87.88
2023-02-18T05:47:05.230Z,88.42
2023-02-18T05:49:35.993Z,88.27
2023-02-18T05:52:06.302Z,88.39
2023-02-18T05:54:36.117Z,87.96
2023-02-18T05:57:05.885Z,88.64
2023-02-18T05:59:35.320Z,88.31
2023-02-18T06:02:07.269Z,89.24
2023-02-18T06:04:36.908Z,89.30
2023-02-18T06:07:06.360Z,89.91
2023-02-18T06:09:35.799Z,89.78
2023-02-18T06:12:05.568Z,89.42
2023-02-18T06:14:35.374Z,89.23
2023-02-18T06:17:07.502Z,89.91
2023-02-18T06:19:36.939Z,89.97
2023-02-18T06:22:06.532Z,89.98
2023-02-18T06:24:36.538Z,90.05
2023-02-18T06:27:06.314Z,89.79
2023-02-18T06:29:36.856Z,89.51
2023-02-18T06:32:08.959Z,89.25
2023-02-18T06:34:38.393Z,89.15
2023-02-18T06:37:07.808Z,88.99
2023-02-18T06:39:37.198Z,88.80
2023-02-18T06:42:06.861Z,88.81
2023-02-18T06:44:37.917Z,88.83
2023-02-18T06:47:10.151Z,88.93
2023-02-18T06:49:39.694Z,88.87
2023-02-18T06:52:09.087Z,89.07
2023-02-18T06:54:38.467Z,89.17
2023-02-18T06:57:07.919Z,88.97
2023-02-18T06:59:37.505Z,88.55
2023-02-18T07:02:06.921Z,88.21
2023-02-18T07:04:38.842Z,88.45
2023-02-18T07:07:08.373Z,88.34
2023-02-18T07:09:37.761Z,88.58
2023-02-18T07:12:07.745Z,88.29
2023-02-18T07:14:37.204Z,88.37
2023-02-18T07:17:06.773Z,88.38
2023-02-18T07:19:38.713Z,88.30
2023-02-18T07:22:08.131Z,88.41
2023-02-18T07:24:37.558Z,88.76
2023-02-18T07:27:06.992Z,88.83
2023-02-18T07:29:36.470Z,88.60
2023-02-18T07:32:05.968Z,88.77
2023-02-18T07:34:35.380Z,88.30
2023-02-18T07:37:09.526Z,88.04
2023-02-18T07:39:39.051Z,88.10
2023-02-18T07:42:08.681Z,87.86
2023-02-18T07:44:38.919Z,87.98
2023-02-18T07:47:10.096Z,88.41
2023-02-18T07:49:39.474Z,88.48
2023-02-18T07:52:11.500Z,88.36
2023-02-18T07:54:40.956Z,88.41
2023-02-18T07:57:10.595Z,88.26
2023-02-18T07:59:39.974Z,88.07
2023-02-18T08:02:09.717Z,87.93
2023-02-18T08:04:39.186Z,88.05
2023-02-18T08:07:15.016Z,88.32
2023-02-18T08:09:44.931Z,88.43
2023-02-18T08:12:14.409Z,88.80
2023-02-18T08:14:43.888Z,89.37
2023-02-18T08:17:13.297Z,89.21
2023-02-18T08:19:42.701Z,88.92
2023-02-18T08:22:14.685Z,89.29
2023-02-18T08:24:44.166Z,89.23
2023-02-18T08:27:14.692Z,88.99
2023-02-18T08:29:44.125Z,89.13
2023-02-18T08:32:13.610Z,88.86
2023-02-18T08:34:43.132Z,88.61
2023-02-18T08:37:15.116Z,88.31
2023-02-18T08:39:44.574Z,88.02
2023-02-18T08:42:14.353Z,87.28
2023-02-18T08:44:43.765Z,87.02
2023-02-18T08:48:13.269Z,87.26
2023-02-18T08:50:02.642Z,87.20
2023-02-18T08:52:34.727Z,87.69
2023-02-18T08:55:04.138Z,87.31
2023-02-18T08:57:33.647Z,87.43
2023-02-18T09:00:03.254Z,86.74
2023-02-18T09:02:32.661Z,86.34
2023-02-18T09:05:02.091Z,85.93
2023-02-18T09:07:34.038Z,85.17
2023-02-18T09:10:03.397Z,84.32
2023-02-18T09:12:33.336Z,84.22
2023-02-18T09:15:03.248Z,84.10
2023-02-18T09:17:33.776Z,83.75
2023-02-18T09:20:04.128Z,83.31
2023-02-18T09:22:36.167Z,82.77
2023-02-18T09:25:07.447Z,83.23
2023-02-18T09:27:37.110Z,82.09
2023-02-18T09:30:07.352Z,81.71
2023-02-18T09:32:37.010Z,81.30
2023-02-18T09:35:06.886Z,81.61
2023-02-18T09:37:40.023Z,81.18
2023-02-18T09:40:10.970Z,80.80
2023-02-18T09:42:40.515Z,80.30
2023-02-18T09:45:14.337Z,80.13
2023-02-18T09:47:46.333Z,80.81
2023-02-18T09:50:23.145Z,81.93
2023-02-18T09:52:55.782Z,81.82
2023-02-18T09:55:29.964Z,82.39
2023-02-18T09:58:03.750Z,82.10
2023-02-18T10:00:37.645Z,81.63
2023-02-18T10:03:10.596Z,80.84
2023-02-18T10:05:43.678Z,80.61
2023-02-18T10:08:24.572Z,80.82
2023-02-18T10:10:54.305Z,80.98
2023-02-18T10:13:26.544Z,80.51
2023-02-18T10:15:56.718Z,80.36
2023-02-18T10:18:35.647Z,80.52
2023-02-18T10:21:09.909Z,81.79
2023-02-18T10:23:46.458Z,82.53
2023-02-18T10:26:19.968Z,83.13
2023-02-18T10:28:51.328Z,83.46
2023-02-18T10:31:25.545Z,84.19
2023-02-18T10:34:01.880Z,83.88
2023-02-18T10:36:39.318Z,83.49
2023-02-18T10:39:32.266Z,83.23
2023-02-18T10:42:17.434Z,84.65
2023-02-18T10:44:58.969Z,85.50
2023-02-18T10:47:40.625Z,85.41
2023-02-18T10:50:16.201Z,84.89
2023-02-18T10:52:49.158Z,84.89
2023-02-18T10:55:22.082Z,83.41
2023-02-18T10:57:53.867Z,82.28
2023-02-18T11:00:27.091Z,82.28
2023-02-18T11:03:19.193Z,81.47
2023-02-18T11:05:50.690Z,81.45
2023-02-18T11:08:23.269Z,80.24
2023-02-18T11:10:56.675Z,79.27
2023-02-18T11:13:31.897Z,79.01
2023-02-18T11:16:04.333Z,79.70
2023-02-18T11:18:40.621Z,80.12
2023-02-18T11:21:27.816Z,81.16
2023-02-18T11:23:58.694Z,81.71
2023-02-18T11:26:35.062Z,81.93
2023-02-18T11:29:08.178Z,82.75
2023-02-18T11:31:45.046Z,83.38
2023-02-18T11:34:19.775Z,83.62
2023-02-18T11:36:51.318Z,83.83
2023-02-18T11:39:24.565Z,83.20
2023-02-18T11:42:01.721Z,84.15
2023-02-18T11:44:35.521Z,83.85
2023-02-18T11:47:07.999Z,84.57
2023-02-18T11:49:38.204Z,84.83
2023-02-18T11:52:19.588Z,85.50
2023-02-18T11:55:04.672Z,84.89
2023-02-18T11:57:40.096Z,84.61
2023-02-18T12:00:23.232Z,85.28
2023-02-18T12:02:54.323Z,84.56
2023-02-18T12:05:26.456Z,83.59
2023-02-18T12:08:01.759Z,82.97
2023-02-18T12:10:35.482Z,82.16
2023-02-18T12:13:20.500Z,82.32
2023-02-18T12:16:00.059Z,81.80
2023-02-18T12:18:48.856Z,81.56
2023-02-18T12:21:43.287Z,81.81
2023-02-18T12:24:28.421Z,81.85
2023-02-18T12:27:04.899Z,81.01
2023-02-18T12:30:04.581Z,81.65
2023-02-18T12:32:46.879Z,81.24
2023-02-18T12:35:36.388Z,82.69
2023-02-18T12:38:38.906Z,83.34
2023-02-18T12:41:20.378Z,83.62
2023-02-18T12:44:01.343Z,82.83
2023-02-18T12:46:44.204Z,82.82
2023-02-18T12:49:52.940Z,82.02
2023-02-18T12:52:36.431Z,81.95
2023-02-18T12:55:30.281Z,82.29
2023-02-18T12:58:08.241Z,81.91
2023-02-18T13:01:10.470Z,81.58
2023-02-18T13:04:15.526Z,81.50
2023-02-18T13:06:58.036Z,81.37
2023-02-18T13:09:41.153Z,81.76
2023-02-18T13:12:15.684Z,81.90
2023-02-18T13:14:51.679Z,81.88
2023-02-18T13:17:22.715Z,82.64
2023-02-18T13:19:57.860Z,82.67
2023-02-18T13:22:33.285Z,82.85
2023-02-18T13:25:03.012Z,83.26
2023-02-18T13:27:39.472Z,83.20
2023-02-18T13:30:22.310Z,84.18
2023-02-18T13:33:08.895Z,83.96
2023-02-18T13:35:43.133Z,83.40
2023-02-18T13:38:45.217Z,83.41
2023-02-18T13:41:17.514Z,83.95
2023-02-18T13:43:47.997Z,84.57
2023-02-18T13:46:19.253Z,84.66
2023-02-18T13:48:52.923Z,85.36
2023-02-18T13:51:32.157Z,85.19
2023-02-18T13:54:07.809Z,85.78
2023-02-18T13:56:46.404Z,86.13
2023-02-18T13:59:21.977Z,85.66
2023-02-18T14:01:53.865Z,85.67
2023-02-18T14:04:54.392Z,85.95
2023-02-18T14:07:32.777Z,84.82
2023-02-18T14:10:04.686Z,84.26
2023-02-18T14:12:44.683Z,83.55
2023-02-18T14:15:44.255Z,85.77
2023-02-18T14:18:26.665Z,85.39
2023-02-18T14:21:08.037Z,86.46
2023-02-18T14:23:46.450Z,86.85
2023-02-18T14:26:27.952Z,88.12
2023-02-18T14:29:03.397Z,87.47
2023-02-18T14:31:47.249Z,87.91
2023-02-18T14:34:47.371Z,87.87
2023-02-18T14:37:30.654Z,87.59
2023-02-18T14:40:09.169Z,87.40
2023-02-18T14:42:49.943Z,86.75
2023-02-18T14:45:34.895Z,85.99
2023-02-18T14:48:28.310Z,85.81
2023-02-18T14:51:00.264Z,85.17
2023-02-18T14:53:31.181Z,84.75
2023-02-18T14:56:04.807Z,84.57
2023-02-18T14:58:38.854Z,84.65
2023-02-18T15:01:20.828Z,84.83
2023-02-18T15:03:51.270Z,85.26
2023-02-18T15:06:31.084Z,85.28
2023-02-18T15:09:01.094Z,85.71
2023-02-18T15:11:40.151Z,85.24
2023-02-18T15:14:16.786Z,85.32
2023-02-18T15:16:49.603Z,84.68
2023-02-18T15:19:19.826Z,84.67
2023-02-18T15:21:52.137Z,84.58
2023-02-18T15:24:28.258Z,84.81
2023-02-18T15:27:01.598Z,84.98
2023-02-18T15:29:32.600Z,84.98
2023-02-18T15:32:18.607Z,85.08
2023-02-18T15:34:48.877Z,84.93
2023-02-18T15:37:18.397Z,84.88
2023-02-18T15:39:49.336Z,84.83
2023-02-18T15:42:27.669Z,84.98
2023-02-18T15:45:00.843Z,85.31
2023-02-18T15:47:33.699Z,85.38
2023-02-18T15:50:06.077Z,86.27
2023-02-18T15:52:40.537Z,86.10
2023-02-18T15:55:15.922Z,85.91
2023-02-18T15:57:45.979Z,85.87
2023-02-18T16:00:19.581Z,86.18
2023-02-18T16:03:00.006Z,85.74
2023-02-18T16:05:32.142Z,85.72
2023-02-18T16:08:04.153Z,85.56
2023-02-18T16:10:49.458Z,84.81
2023-02-18T16:13:20.744Z,85.21
2023-02-18T16:15:52.160Z,84.85
2023-02-18T16:18:31.820Z,85.01
2023-02-18T16:21:04.378Z,85.00
2023-02-18T16:23:39.010Z,84.97
2023-02-18T16:26:23.805Z,85.18
2023-02-18T16:28:55.489Z,84.91
2023-02-18T16:31:25.334Z,85.08
2023-02-18T16:33:57.365Z,84.80
2023-02-18T16:36:27.842Z,84.66
2023-02-18T16:38:58.733Z,84.57
2023-02-18T16:41:28.250Z,84.76
2023-02-18T16:43:57.670Z,85.09
2023-02-18T16:46:27.716Z,85.15
2023-02-18T16:48:59.817Z,84.74
2023-02-18T16:51:34.172Z,84.88
2023-02-18T16:54:03.739Z,85.29
2023-02-18T16:56:35.925Z,85.33
2023-02-18T16:59:05.352Z,84.90
2023-02-18T17:01:38.562Z,85.49
2023-02-18T17:04:15.262Z,84.83
2023-02-18T17:06:45.727Z,84.61
2023-02-18T17:09:17.586Z,84.17
2023-02-18T17:11:48.873Z,84.31
2023-02-18T17:14:20.269Z,83.18
2023-02-18T17:16:50.558Z,82.82
2023-02-18T17:19:23.272Z,82.91
2023-02-18T17:21:52.499Z,83.42
2023-02-18T17:24:22.129Z,82.72
2023-02-18T17:26:51.548Z,82.68
2023-02-18T17:29:20.954Z,82.35
2023-02-18T17:31:56.796Z,82.93
2023-02-18T17:34:31.173Z,82.52
2023-02-18T17:37:00.888Z,81.77
2023-02-18T17:39:31.446Z,81.40
2023-02-18T17:42:00.954Z,81.88
2023-02-18T17:44:30.396Z,82.10
2023-02-18T17:46:59.855Z,82.12
2023-02-18T17:49:31.785Z,81.99
2023-02-18T17:52:02.177Z,81.79
2023-02-18T17:54:31.679Z,82.06
2023-02-18T17:57:01.236Z,81.68
2023-02-18T17:59:31.158Z,81.76
2023-02-18T18:02:00.555Z,82.43
2023-02-18T18:04:32.649Z,82.12
2023-02-18T18:07:02.080Z,81.02
2023-02-18T18:09:31.474Z,80.51
2023-02-18T18:12:00.898Z,80.50
2023-02-18T18:14:30.484Z,80.18
2023-02-18T18:17:00.345Z,80.39
2023-02-18T18:19:33.798Z,80.29
2023-02-18T18:22:03.144Z,80.12
2023-02-18T18:24:32.662Z,80.35
2023-02-18T18:27:02.109Z,80.47
2023-02-18T18:29:31.564Z,80.18
2023-02-18T18:32:00.929Z,80.26
2023-02-18T18:34:33.175Z,80.28
2023-02-18T18:37:02.550Z,80.16
2023-02-18T18:39:31.946Z,79.88
2023-02-18T18:42:02.125Z,79.53
2023-02-18T18:44:31.501Z,79.67
2023-02-18T18:47:00.854Z,79.51
2023-02-18T18:49:32.775Z,79.78
2023-02-18T18:52:02.478Z,79.98
2023-02-18T18:54:31.802Z,79.98
2023-02-18T18:57:01.422Z,79.72
2023-02-18T18:59:30.795Z,79.63
2023-02-18T19:02:00.451Z,79.59
2023-02-18T19:04:29.899Z,79.58
2023-02-18T19:07:01.963Z,79.52
2023-02-18T19:09:31.348Z,79.69
2023-02-18T19:12:00.752Z,79.50
2023-02-18T19:14:30.103Z,79.62
2023-02-18T19:16:59.441Z,79.11
2023-02-18T19:19:31.015Z,79.50
2023-02-18T19:22:03.110Z,79.30
2023-02-18T19:24:32.535Z,79.63
2023-02-18T19:27:01.933Z,78.91
2023-02-18T19:29:31.301Z,78.83
2023-02-18T19:32:00.748Z,78.67
2023-02-18T19:34:30.143Z,79.09
2023-02-18T19:36:59.563Z,79.20
2023-02-18T19:39:31.562Z,80.43
2023-02-18T19:42:01.001Z,80.34
2023-02-18T19:44:35.472Z,79.73
2023-02-18T19:47:04.864Z,78.99
2023-02-18T19:49:34.328Z,79.33
2023-02-18T19:52:04.455Z,78.85
2023-02-18T19:54:36.690Z,79.48
2023-02-18T19:57:07.384Z,79.37
2023-02-18T19:59:37.262Z,79.51
2023-02-18T20:02:06.899Z,79.26
2023-02-18T20:04:36.678Z,79.10
2023-02-18T20:07:06.186Z,79.31
2023-02-18T20:09:38.381Z,79.44
2023-02-18T20:12:10.027Z,79.83
2023-02-18T20:14:40.006Z,80.21
2023-02-18T20:17:10.194Z,80.56
2023-02-18T20:19:40.414Z,80.86
2023-02-18T20:22:10.326Z,80.55
2023-02-18T20:24:43.134Z,80.68
2023-02-18T20:27:12.788Z,80.97
2023-02-18T20:29:42.425Z,81.07
2023-02-18T20:32:12.037Z,81.44
2023-02-18T20:34:41.520Z,81.51
2023-02-18T20:37:11.017Z,81.10
2023-02-18T20:39:43.090Z,80.86
2023-02-18T20:42:16.601Z,80.83
2023-02-18T20:44:46.900Z,80.93
2023-02-18T20:47:16.317Z,81.11
2023-02-18T20:49:46.775Z,80.68
2023-02-18T20:52:16.401Z,81.03
2023-02-18T20:54:48.516Z,80.70
2023-02-18T20:57:18.074Z,80.68
2023-02-18T20:59:47.714Z,80.72
2023-02-18T21:02:17.790Z,80.59
2023-02-18T21:04:47.659Z,80.80
2023-02-18T21:07:17.206Z,80.53
2023-02-18T21:09:49.174Z,80.47
2023-02-18T21:12:18.649Z,80.63
2023-02-18T21:14:48.286Z,80.54
2023-02-18T21:17:17.728Z,80.66
2023-02-18T21:19:47.198Z,80.68
2023-02-18T21:22:16.701Z,81.28
2023-02-18T21:24:48.738Z,81.72
2023-02-18T21:27:18.166Z,81.81
2023-02-18T21:29:47.534Z,81.71
2023-02-18T21:32:17.048Z,81.27
2023-02-18T21:34:46.657Z,81.56
2023-02-18T21:37:16.059Z,81.38
2023-02-18T21:39:45.459Z,81.53
2023-02-18T21:42:17.466Z,81.48
2023-02-18T21:44:46.891Z,81.72
2023-02-18T21:47:16.324Z,81.62
2023-02-18T21:49:45.821Z,81.67
2023-02-18T21:52:15.254Z,81.83
2023-02-18T21:54:47.098Z,81.67
2023-02-18T21:57:22.015Z,81.70
2023-02-18T21:59:51.600Z,81.71
2023-02-18T22:02:23.161Z,81.84
2023-02-18T22:04:55.253Z,81.98
2023-02-18T22:07:27.668Z,81.88
2023-02-18T22:09:57.201Z,81.76
2023-02-18T22:12:32.052Z,81.59
2023-02-18T22:15:02.477Z,81.83
2023-02-18T22:17:32.164Z,81.65
2023-02-18T22:20:01.628Z,81.57
2023-02-18T22:22:30.980Z,81.66
2023-02-18T22:25:00.375Z,81.81
2023-02-18T22:27:32.894Z,81.47
2023-02-18T22:30:02.382Z,81.30
2023-02-18T22:32:32.023Z,81.51
2023-02-18T22:35:01.468Z,81.65
2023-02-18T22:37:31.810Z,81.97
2023-02-18T22:40:01.181Z,82.02
2023-02-18T22:42:33.165Z,81.92
2023-02-18T22:45:03.588Z,82.00
2023-02-18T22:47:33.226Z,82.12
2023-02-18T22:50:02.898Z,82.56
2023-02-18T22:52:32.338Z,82.34
2023-02-18T22:55:01.682Z,82.52
2023-02-18T22:57:33.646Z,82.50
2023-02-18T23:00:03.320Z,82.49
2023-02-18T23:02:32.738Z,82.47
2023-02-18T23:05:02.139Z,82.48
2023-02-18T23:07:31.541Z,82.53
2023-02-18T23:10:00.979Z,82.39
2023-02-18T23:12:32.992Z,82.28
2023-02-18T23:15:02.483Z,82.33
2023-02-18T23:17:31.882Z,82.14
2023-02-18T23:20:01.667Z,82.03
2023-02-18T23:22:33.560Z,82.37
2023-02-18T23:25:04.318Z,82.24
2023-02-18T23:27:36.365Z,82.37
2023-02-18T23:30:06.409Z,82.50
2023-02-18T23:32:37.388Z,82.40
2023-02-18T23:35:09.045Z,82.43
2023-02-18T23:37:51.965Z,82.34
2023-02-18T23:40:21.303Z,82.68
2023-02-18T23:42:55.871Z,82.73
2023-02-18T23:45:25.565Z,82.44
2023-02-18T23:47:55.070Z,82.68
2023-02-18T23:50:24.678Z,82.37
2023-02-18T23:52:54.183Z,82.65
2023-02-18T23:55:23.607Z,82.48
2023-02-18T23:57:55.642Z,82.28
